Portada
METAR-TAF:

METAR-TAF

Aeropuertos :

Base Aérea de Morón

Morón de la Frontera, España

latitud: 37-09N, longitud: 005-37W, altitud: 87 m

Observación

El informe se hizo hace 1 hora y 8 minutos, a las 12:00 UTC
Viento 8 kt del noreste, variando entre norte-noreste y este
Temperatura 20°C
Humedad 53%
Presión 1025 hPa
Visibilidad 10 km o más
sin nubes por debajo de 1500 m y sin presencia de cumulonimbus.

METAR: LEMO 101200Z 05008KT 020V080 CAVOK 20/10 Q1025 NOSIG

Hora: 14:08 (13:08 UTC)

Pronóstico

El informe se hizo hace 2 horas y 8 minutos, a las 11:00 UTC
Pronóstico válido del 10 a las 12 UTC al 10 a las 21 UTC
Viento 10 kt del noreste
Visibilidad 10 km o más
sin nubes por debajo de 1500 m y sin presencia de cumulonimbus.
Evolucionando progresivamente
del 10 a las 12 UTC al 10 a las 14 UTC
Viento 5 kt del oeste

TAF: LEMO 101100Z 1012/1021 05010KT CAVOK BECMG 1012/1014 27005KT

Observaciones y pronósticos meteorológicos de más de 4000 aeropuertos (mensajes METAR y TAF).

Los puntos amarillos y rojos representan las estaciones disponibles.

Ponga el ratón en el punto deseado para ver el nombre de la estación.

Haga clic para ver las observaciones y los pronósticos meteorológicos.

Para cambiar el mapa : haga clic en los botones verdes con una cruz de color negro para hacer un zoom, en el botón verde con un guión para alejar o en las flechas verdes para mapas adyacentes.


METAR-TAF: